createdAt,value
2024-02-15T00:01:28.472Z,100872.53
2024-02-15T00:03:56.174Z,100869.03
2024-02-15T00:06:23.932Z,100867.94
2024-02-15T00:08:53.270Z,100865.28
2024-02-15T00:11:21.030Z,100865.28
2024-02-15T00:13:50.116Z,100864.44
2024-02-15T00:16:17.936Z,100866.22
2024-02-15T00:18:46.114Z,100862.72
2024-02-15T00:21:13.985Z,100856.66
2024-02-15T00:23:43.662Z,100857.72
2024-02-15T00:26:12.861Z,100852.41
2024-02-15T00:28:43.517Z,100856.84
2024-02-15T00:31:12.694Z,100845.25
2024-02-15T00:33:40.580Z,100844.31
2024-02-15T00:36:09.364Z,100838.84
2024-02-15T00:38:37.320Z,100836.19
2024-02-15T00:41:05.045Z,100841.41
2024-02-15T00:43:36.742Z,100830.75
2024-02-15T00:46:04.808Z,100843.97
2024-02-15T00:48:34.129Z,100839.59
2024-02-15T00:51:02.137Z,100837.78
2024-02-15T00:53:29.958Z,100846.72
2024-02-15T00:55:57.951Z,100844.06
2024-02-15T00:58:27.699Z,100837.91
2024-02-15T01:00:55.470Z,100844.19
2024-02-15T01:03:23.989Z,100837.16
2024-02-15T01:05:53.467Z,100831.94
2024-02-15T01:08:21.517Z,100840.03
2024-02-15T01:10:49.240Z,100835.69
2024-02-15T01:13:16.922Z,100840.03
2024-02-15T01:15:44.634Z,100848.13
2024-02-15T01:18:12.581Z,100835.69
2024-02-15T01:20:40.344Z,100842.81
2024-02-15T01:23:09.985Z,100848.38
2024-02-15T01:25:37.678Z,100844.00
2024-02-15T01:28:05.978Z,100848.47
2024-02-15T01:30:33.708Z,100845.06
2024-02-15T01:33:01.819Z,100844.34
2024-02-15T01:35:29.832Z,100842.66
2024-02-15T01:37:57.567Z,100840.81
2024-02-15T01:40:27.528Z,100832.94
2024-02-15T01:42:56.134Z,100841.03
2024-02-15T01:45:23.864Z,100840.19
2024-02-15T01:47:51.953Z,100832.31
2024-02-15T01:50:22.880Z,100835.94
2024-02-15T01:52:54.064Z,100837.84
2024-02-15T01:55:21.918Z,100834.22
2024-02-15T01:57:51.789Z,100831.63
2024-02-15T02:00:20.588Z,100825.38
2024-02-15T02:02:48.768Z,100821.00
2024-02-15T02:05:16.510Z,100824.63
2024-02-15T02:07:44.715Z,100813.97
2024-02-15T02:10:13.451Z,100822.81
2024-02-15T02:12:42.798Z,100813.97
2024-02-15T02:15:13.284Z,100814.91
2024-02-15T02:17:41.985Z,100818.56
2024-02-15T02:20:12.153Z,100816.75
2024-02-15T02:22:40.053Z,100817.59
2024-02-15T02:25:11.975Z,100811.41
2024-02-15T02:27:39.714Z,100808.84
2024-02-15T02:30:16.222Z,100807.06
2024-02-15T02:32:44.289Z,100810.69
2024-02-15T02:35:13.584Z,100802.69
2024-02-15T02:37:41.659Z,100806.19
2024-02-15T02:40:13.541Z,100810.91
2024-02-15T02:42:50.343Z,100808.56
2024-02-15T02:45:18.084Z,100811.47
2024-02-15T02:47:45.964Z,100820.50
2024-02-15T02:50:13.794Z,100820.63
2024-02-15T02:52:41.587Z,100814.44
2024-02-15T02:55:10.920Z,100810.09
2024-02-15T02:57:39.435Z,100810.09
2024-02-15T03:00:11.796Z,100804.97
2024-02-15T03:02:39.556Z,100816.59
2024-02-15T03:05:09.632Z,100809.34
2024-02-15T03:07:38.340Z,100818.91
2024-02-15T03:10:09.655Z,100812.66
2024-02-15T03:12:40.079Z,100812.66
2024-02-15T03:15:12.354Z,100815.41
2024-02-15T03:17:40.369Z,100813.69
2024-02-15T03:20:12.737Z,100808.38
2024-02-15T03:22:40.669Z,100807.53
2024-02-15T03:25:09.647Z,100803.03
2024-02-15T03:27:39.640Z,100808.25
2024-02-15T03:30:08.823Z,100813.59
2024-02-15T03:32:36.762Z,100807.19
2024-02-15T03:35:04.825Z,100806.34
2024-02-15T03:37:34.796Z,100808.38
2024-02-15T03:40:02.514Z,100802.94
2024-02-15T03:42:30.273Z,100803.69
2024-02-15T03:44:59.366Z,100808.06
2024-02-15T03:47:30.211Z,100803.59
2024-02-15T03:49:58.116Z,100800.91
2024-02-15T03:52:25.786Z,100799.94
2024-02-15T03:54:54.900Z,100804.44
2024-02-15T03:57:22.600Z,100806.13
2024-02-15T03:59:51.739Z,100805.25
2024-02-15T04:02:21.215Z,100800.81
2024-02-15T04:04:49.777Z,100808.81
2024-02-15T04:07:18.537Z,100805.16
2024-02-15T04:09:46.336Z,100807.81
2024-02-15T04:12:15.020Z,100809.66
2024-02-15T04:14:46.260Z,100815.81
2024-02-15T04:17:15.084Z,100808.69
2024-02-15T04:19:47.486Z,100804.13
2024-02-15T04:22:17.316Z,100803.97
2024-02-15T04:24:46.491Z,100802.19
2024-02-15T04:27:15.348Z,100807.28
2024-02-15T04:29:45.650Z,100801.94
2024-02-15T04:32:14.398Z,100809.84
2024-02-15T04:34:42.480Z,100807.19
2024-02-15T04:37:11.944Z,100806.19
2024-02-15T04:39:39.634Z,100804.41
2024-02-15T04:42:12.300Z,100799.09
2024-02-15T04:44:40.587Z,100801.75
2024-02-15T04:47:09.745Z,100791.09
2024-02-15T04:49:39.284Z,100792.88
2024-02-15T04:52:07.897Z,100788.44
2024-02-15T04:54:37.088Z,100785.78
2024-02-15T04:57:04.976Z,100785.03
2024-02-15T04:59:32.755Z,100784.16
2024-02-15T05:02:00.570Z,100783.31
2024-02-15T05:04:28.310Z,100787.81
2024-02-15T05:06:57.417Z,100783.44
2024-02-15T05:09:25.155Z,100781.50
2024-02-15T05:11:54.255Z,100775.34
2024-02-15T05:14:22.546Z,100777.06
2024-02-15T05:16:50.306Z,100778.72
2024-02-15T05:19:18.579Z,100774.25
2024-02-15T05:21:47.309Z,100770.66
2024-02-15T05:24:15.924Z,100775.97
2024-02-15T05:26:44.669Z,100770.66
2024-02-15T05:29:13.899Z,100765.31
2024-02-15T05:31:41.589Z,100768.81
2024-02-15T05:34:13.716Z,100767.13
2024-02-15T05:36:41.690Z,100770.75
2024-02-15T05:39:12.435Z,100761.81
2024-02-15T05:41:41.353Z,100768.09
2024-02-15T05:44:09.419Z,100769.91
2024-02-15T05:46:40.713Z,100772.56
2024-02-15T05:49:09.599Z,100774.38
2024-02-15T05:51:37.530Z,100771.00
2024-02-15T05:54:05.476Z,100770.25
2024-02-15T05:56:33.286Z,100768.44
2024-02-15T05:59:03.348Z,100765.88
2024-02-15T06:01:31.340Z,100770.56
2024-02-15T06:04:01.589Z,100767.06
2024-02-15T06:06:30.006Z,100766.31
2024-02-15T06:09:01.181Z,100762.91
2024-02-15T06:11:30.051Z,100760.34
2024-02-15T06:13:58.326Z,100760.47
2024-02-15T06:16:26.046Z,100758.78
2024-02-15T06:18:53.887Z,100756.22
2024-02-15T06:21:23.627Z,100751.88
2024-02-15T06:23:52.168Z,100750.16
2024-02-15T06:26:20.136Z,100748.56
2024-02-15T06:29:05.517Z,100757.41
2024-02-15T06:31:51.116Z,100752.91
2024-02-15T06:34:36.645Z,100742.41
2024-02-15T06:37:23.015Z,100734.63
2024-02-15T06:39:51.192Z,100738.28
2024-02-15T06:42:21.105Z,100732.31
2024-02-15T06:44:50.737Z,100730.59
2024-02-15T06:47:18.944Z,100735.94
2024-02-15T06:49:51.061Z,100742.22
2024-02-15T06:52:20.198Z,100736.16
2024-02-15T06:54:48.066Z,100744.00
2024-02-15T06:57:17.024Z,100748.38
2024-02-15T06:59:48.867Z,100748.28
2024-02-15T07:02:17.820Z,100746.56
2024-02-15T07:04:47.066Z,100759.75
2024-02-15T07:07:15.603Z,100747.31
2024-02-15T07:09:44.838Z,100749.03
2024-02-15T07:12:12.622Z,100745.63
2024-02-15T07:14:40.849Z,100749.03
2024-02-15T07:17:08.945Z,100748.16
2024-02-15T07:19:39.585Z,100754.34
2024-02-15T07:22:08.434Z,100761.44
2024-02-15T07:24:39.192Z,100751.69
2024-02-15T07:27:08.491Z,100744.66
2024-02-15T07:29:38.763Z,100746.47
2024-02-15T07:32:07.272Z,100742.97
2024-02-15T07:34:35.288Z,100750.06
2024-02-15T07:37:05.002Z,100746.47
2024-02-15T07:39:32.804Z,100755.28
2024-02-15T07:42:00.630Z,100753.59
2024-02-15T07:44:31.261Z,100751.78
2024-02-15T07:46:59.025Z,100750.94
2024-02-15T07:49:26.878Z,100758.06
2024-02-15T07:51:54.768Z,100750.81
2024-02-15T07:54:22.956Z,100761.59
2024-02-15T07:56:51.090Z,100761.59
2024-02-15T07:59:18.882Z,100768.69
2024-02-15T08:01:49.236Z,100765.09
2024-02-15T08:04:18.390Z,100765.09
2024-02-15T08:06:46.488Z,100765.72
2024-02-15T08:09:15.179Z,100759.31
2024-02-15T08:11:43.392Z,100762.72
2024-02-15T08:14:14.123Z,100761.66
2024-02-15T08:16:42.857Z,100760.47
2024-02-15T08:19:12.502Z,100759.06
2024-02-15T08:21:42.893Z,100762.03
2024-02-15T08:24:10.946Z,100762.25
2024-02-15T08:26:40.302Z,100759.66
2024-02-15T08:29:08.444Z,100752.69
2024-02-15T08:31:36.259Z,100753.69
2024-02-15T08:34:06.885Z,100751.06
2024-02-15T08:36:36.316Z,100750.25
2024-02-15T08:39:05.640Z,100748.38
2024-02-15T08:41:33.579Z,100747.44
2024-02-15T08:44:04.525Z,100733.03
2024-02-15T08:46:32.332Z,100744.69
2024-02-15T08:49:02.060Z,100735.97
2024-02-15T08:51:31.320Z,100733.31
2024-02-15T08:54:01.306Z,100730.03
2024-02-15T08:56:29.111Z,100728.97
2024-02-15T08:59:01.221Z,100727.72
2024-02-15T09:01:29.815Z,100721.50
2024-02-15T09:03:57.587Z,100715.34
2024-02-15T09:06:25.453Z,100716.44
2024-02-15T09:08:53.252Z,100716.88
2024-02-15T09:11:22.323Z,100719.44
2024-02-15T09:13:52.631Z,100714.91
2024-02-15T09:16:22.911Z,100718.81
2024-02-15T09:18:50.774Z,100703.91
2024-02-15T09:21:18.773Z,100708.66
2024-02-15T09:23:46.659Z,100709.63
2024-02-15T09:26:14.392Z,100712.28
2024-02-15T09:28:43.691Z,100712.44
2024-02-15T09:31:12.849Z,100702.47
2024-02-15T09:33:40.884Z,100702.19
2024-02-15T09:36:09.150Z,100703.06
2024-02-15T09:38:36.944Z,100701.13
2024-02-15T09:41:08.766Z,100700.84
2024-02-15T09:43:37.543Z,100693.53
2024-02-15T09:46:07.812Z,100691.69
2024-02-15T09:48:36.648Z,100683.69
2024-02-15T09:51:05.735Z,100687.34
2024-02-15T09:53:33.952Z,100679.22
2024-02-15T09:56:05.439Z,100684.41
2024-02-15T09:58:35.987Z,100678.94
2024-02-15T10:01:10.600Z,100680.34
2024-02-15T10:03:41.051Z,100680.00
2024-02-15T10:06:08.934Z,100688.31
2024-02-15T10:08:36.915Z,100686.06
2024-02-15T10:11:09.162Z,100685.81
2024-02-15T10:13:37.128Z,100687.25
2024-02-15T10:16:20.570Z,100682.63
2024-02-15T10:18:49.549Z,100678.13
2024-02-15T10:21:29.366Z,100680.78
2024-02-15T10:24:10.849Z,100678.97
2024-02-15T10:26:38.817Z,100686.13
2024-02-15T10:29:12.021Z,100685.56
2024-02-15T10:31:42.878Z,100686.66
2024-02-15T10:34:11.181Z,100686.53
2024-02-15T10:36:39.054Z,100682.03
2024-02-15T10:39:18.134Z,100682.91
2024-02-15T10:41:47.258Z,100669.53
2024-02-15T10:44:18.827Z,100674.47
2024-02-15T10:46:52.081Z,100668.84
2024-02-15T10:49:21.304Z,100664.19
2024-02-15T10:51:53.808Z,100664.78
2024-02-15T10:54:42.516Z,100666.13
2024-02-15T10:57:12.505Z,100655.72
2024-02-15T10:59:42.448Z,100650.53
2024-02-15T11:02:35.694Z,100645.09
2024-02-15T11:05:07.285Z,100650.34
2024-02-15T11:07:35.590Z,100645.72
2024-02-15T11:10:06.095Z,100638.41
2024-02-15T11:12:34.132Z,100634.06
2024-02-15T11:15:02.084Z,100635.75
2024-02-15T11:17:55.200Z,100634.06
2024-02-15T11:20:49.613Z,100629.00
2024-02-15T11:23:35.710Z,100618.53
2024-02-15T11:26:06.142Z,100619.94
2024-02-15T11:28:41.440Z,100613.88
2024-02-15T11:31:11.075Z,100615.97
2024-02-15T11:33:41.089Z,100608.25
2024-02-15T11:36:11.430Z,100600.63
2024-02-15T11:38:42.279Z,100595.81
2024-02-15T11:41:11.560Z,100595.81
2024-02-15T11:43:57.776Z,100583.97
2024-02-15T11:46:30.571Z,100576.59
2024-02-15T11:49:01.288Z,100579.84
2024-02-15T11:51:30.955Z,100579.56
2024-02-15T11:54:06.812Z,100568.53
2024-02-15T11:56:52.981Z,100562.91
2024-02-15T11:59:30.448Z,100565.28
2024-02-15T12:02:16.352Z,100557.94
2024-02-15T12:05:03.481Z,100556.50
2024-02-15T12:07:48.686Z,100553.41
2024-02-15T12:10:37.371Z,100545.63
2024-02-15T12:13:23.160Z,100542.50
2024-02-15T12:16:17.689Z,100548.41
2024-02-15T12:18:47.430Z,100550.81
2024-02-15T12:21:22.352Z,100553.19
2024-02-15T12:23:50.768Z,100552.03
2024-02-15T12:26:21.166Z,100540.19
2024-02-15T12:28:53.243Z,100539.03
2024-02-15T12:31:21.044Z,100543.25
2024-02-15T12:33:51.080Z,100537.03
2024-02-15T12:36:22.814Z,100540.41
2024-02-15T12:39:01.159Z,100536.75
2024-02-15T12:41:28.947Z,100528.69
2024-02-15T12:43:58.323Z,100527.69
2024-02-15T12:46:28.139Z,100526.16
2024-02-15T12:49:09.518Z,100530.00
2024-02-15T12:51:38.938Z,100527.03
2024-02-15T12:54:12.153Z,100528.06
2024-02-15T12:56:40.862Z,100510.41
2024-02-15T12:59:08.734Z,100515.94
2024-02-15T13:01:36.596Z,100510.72
2024-02-15T13:04:04.444Z,100509.00
2024-02-15T13:06:33.065Z,100502.94
2024-02-15T13:09:03.235Z,100495.91
2024-02-15T13:11:31.239Z,100489.84
2024-02-15T13:13:59.077Z,100489.16
2024-02-15T13:16:29.509Z,100481.94
2024-02-15T13:18:59.163Z,100481.25
2024-02-15T13:21:31.274Z,100477.03
2024-02-15T13:23:59.116Z,100479.03
2024-02-15T13:26:29.239Z,100477.03
2024-02-15T13:28:56.988Z,100478.16
2024-02-15T13:31:24.958Z,100471.97
2024-02-15T13:33:52.854Z,100473.66
2024-02-15T13:36:21.297Z,100462.06
2024-02-15T13:38:50.986Z,100464.06
2024-02-15T13:41:19.885Z,100460.53
2024-02-15T13:43:49.037Z,100458.69
2024-02-15T13:46:17.444Z,100457.88
2024-02-15T13:48:45.396Z,100455.88
2024-02-15T13:51:13.303Z,100447.13
2024-02-15T13:53:41.039Z,100450.50
2024-02-15T13:56:10.633Z,100444.16
2024-02-15T13:58:38.588Z,100444.00
2024-02-15T14:01:07.878Z,100440.47
2024-02-15T14:03:35.744Z,100439.50
2024-02-15T14:06:04.480Z,100438.50
2024-02-15T14:08:32.417Z,100440.34
2024-02-15T14:11:00.149Z,100435.94
2024-02-15T14:13:31.608Z,100424.53
2024-02-15T14:15:59.856Z,100423.56
2024-02-15T14:18:29.538Z,100414.66
2024-02-15T14:20:57.458Z,100413.66
2024-02-15T14:23:28.600Z,100409.31
2024-02-15T14:26:01.301Z,100408.44
2024-02-15T14:28:29.319Z,100405.06
2024-02-15T14:31:14.451Z,100400.72
2024-02-15T14:33:43.700Z,100396.31
2024-02-15T14:36:12.492Z,100386.47
2024-02-15T14:38:40.562Z,100391.84
2024-02-15T14:41:10.314Z,100384.75
2024-02-15T14:43:39.425Z,100393.66
2024-02-15T14:46:09.277Z,100392.81
2024-02-15T14:48:37.229Z,100386.75
2024-02-15T14:51:06.566Z,100384.06
2024-02-15T14:53:34.416Z,100385.09
2024-02-15T14:56:03.227Z,100380.69
2024-02-15T14:58:31.008Z,100376.50
2024-02-15T15:01:00.688Z,100379.47
2024-02-15T15:03:33.941Z,100367.91
2024-02-15T15:06:22.718Z,100366.19
2024-02-15T15:09:09.189Z,100362.13
2024-02-15T15:11:54.403Z,100364.28
2024-02-15T15:14:22.175Z,100360.94
2024-02-15T15:16:50.778Z,100363.59
2024-02-15T15:19:18.958Z,100355.84
2024-02-15T15:21:47.753Z,100361.34
2024-02-15T15:24:17.024Z,100352.47
2024-02-15T15:26:44.970Z,100349.94
2024-02-15T15:29:12.976Z,100343.06
2024-02-15T15:31:40.855Z,100341.53
2024-02-15T15:34:09.015Z,100339.09
2024-02-15T15:36:36.967Z,100336.56
2024-02-15T15:39:09.731Z,100327.81
2024-02-15T15:41:39.892Z,100334.47
2024-02-15T15:44:08.077Z,100331.09
2024-02-15T15:46:35.988Z,100333.94
2024-02-15T15:49:05.589Z,100325.50
2024-02-15T15:51:34.376Z,100326.66
2024-02-15T15:54:02.488Z,100323.44
2024-02-15T15:56:30.410Z,100324.03
2024-02-15T15:58:59.727Z,100324.44
2024-02-15T16:01:27.750Z,100323.94
2024-02-15T16:03:55.982Z,100330.72
2024-02-15T16:06:24.114Z,100331.00
2024-02-15T16:08:52.218Z,100326.91
2024-02-15T16:11:20.477Z,100337.25
2024-02-15T16:13:49.624Z,100333.19
2024-02-15T16:16:19.085Z,100339.81
2024-02-15T16:18:46.990Z,100330.53
2024-02-15T16:21:14.890Z,100330.94
2024-02-15T16:23:42.754Z,100318.00
2024-02-15T16:26:10.757Z,100318.59
2024-02-15T16:28:46.789Z,100322.53
2024-02-15T16:31:15.263Z,100318.47
2024-02-15T16:33:44.783Z,100321.72
2024-02-15T16:36:12.712Z,100309.63
2024-02-15T16:38:41.983Z,100311.72
2024-02-15T16:41:09.883Z,100301.88
2024-02-15T16:43:38.740Z,100298.66
2024-02-15T16:46:06.466Z,100304.28
2024-02-15T16:48:34.929Z,100310.75
2024-02-15T16:51:04.463Z,100306.69
2024-02-15T16:53:32.340Z,100314.13
2024-02-15T16:56:00.109Z,100320.75
2024-02-15T16:58:27.850Z,100322.16
2024-02-15T17:00:55.799Z,100329.59
2024-02-15T17:03:23.631Z,100328.19
2024-02-15T17:05:51.636Z,100325.66
2024-02-15T17:08:20.750Z,100317.22
2024-02-15T17:10:48.542Z,100312.16
2024-02-15T17:13:16.404Z,100312.03
2024-02-15T17:15:44.739Z,100314.00
2024-02-15T17:18:14.958Z,100315.25
2024-02-15T17:20:45.653Z,100327.22
2024-02-15T17:23:13.448Z,100326.50
2024-02-15T17:25:42.637Z,100320.16
2024-02-15T17:28:10.919Z,100297.38
2024-02-15T17:30:38.698Z,100294.00
2024-02-15T17:33:08.335Z,100308.50
2024-02-15T17:35:37.794Z,100314.09
2024-02-15T17:38:05.775Z,100319.72
2024-02-15T17:40:33.595Z,100325.50
2024-02-15T17:43:03.647Z,100330.28
2024-02-15T17:45:32.019Z,100328.84
2024-02-15T17:48:00.133Z,100326.88
2024-02-15T17:50:28.438Z,100319.13
2024-02-15T17:52:56.288Z,100320.38
2024-02-15T17:55:24.064Z,100327.84
2024-02-15T17:57:52.220Z,100321.03
2024-02-15T18:00:21.958Z,100322.03
2024-02-15T18:02:51.317Z,100324.13
2024-02-15T18:05:21.612Z,100326.81
2024-02-15T18:07:50.798Z,100315.28
2024-02-15T18:10:22.842Z,100313.03
2024-02-15T18:12:51.196Z,100314.72
2024-02-15T18:15:24.837Z,100314.72
2024-02-15T18:17:56.905Z,100315.00
2024-02-15T18:20:25.734Z,100300.66
2024-02-15T18:22:53.992Z,100286.47
2024-02-15T18:25:22.044Z,100282.25
2024-02-15T18:27:49.802Z,100279.81
2024-02-15T18:30:20.007Z,100285.88
2024-02-15T18:32:49.535Z,100294.00
2024-02-15T18:35:19.468Z,100287.13
2024-02-15T18:37:48.332Z,100287.38
2024-02-15T18:40:24.166Z,100279.09
2024-02-15T18:42:53.692Z,100271.63
2024-02-15T18:45:22.035Z,100274.84
2024-02-15T18:47:51.013Z,100268.16
2024-02-15T18:50:21.550Z,100262.13
2024-02-15T18:52:50.317Z,100257.78
2024-02-15T18:55:18.713Z,100258.88
2024-02-15T18:57:47.388Z,100261.25
2024-02-15T19:00:25.903Z,100255.59
2024-02-15T19:03:02.951Z,100255.72
2024-02-15T19:05:32.886Z,100255.97
2024-02-15T19:08:00.964Z,100249.09
2024-02-15T19:10:28.872Z,100250.06
2024-02-15T19:12:56.791Z,100243.19
2024-02-15T19:15:27.886Z,100248.78
2024-02-15T19:17:55.916Z,100240.34
2024-02-15T19:20:23.978Z,100251.84
2024-02-15T19:22:53.242Z,100243.28
2024-02-15T19:25:21.953Z,100237.09
2024-02-15T19:27:50.764Z,100238.91
2024-02-15T19:30:19.925Z,100236.50
2024-02-15T19:32:49.946Z,100237.63
2024-02-15T19:35:19.480Z,100233.13
2024-02-15T19:37:47.983Z,100236.06
2024-02-15T19:40:20.230Z,100234.13
2024-02-15T19:42:50.323Z,100227.78
2024-02-15T19:45:21.793Z,100222.31
2024-02-15T19:47:51.687Z,100215.03
2024-02-15T19:50:23.202Z,100214.06
2024-02-15T19:52:51.701Z,100218.41
2024-02-15T19:55:23.307Z,100215.50
2024-02-15T19:57:51.909Z,100221.41
2024-02-15T20:00:20.919Z,100206.97
2024-02-15T20:02:49.691Z,100223.53
2024-02-15T20:05:18.368Z,100222.56
2024-02-15T20:07:46.308Z,100224.38
2024-02-15T20:10:14.454Z,100218.22
2024-02-15T20:12:44.603Z,100224.09
2024-02-15T20:15:12.796Z,100221.66
2024-02-15T20:17:40.930Z,100215.38
2024-02-15T20:20:10.861Z,100217.03
2024-02-15T20:22:40.459Z,100219.72
2024-02-15T20:25:10.989Z,100220.53
2024-02-15T20:27:39.339Z,100222.13
2024-02-15T20:30:13.181Z,100219.31
2024-02-15T20:32:41.007Z,100220.16
2024-02-15T20:35:09.769Z,100222.56
2024-02-15T20:37:37.722Z,100224.97
2024-02-15T20:40:07.408Z,100222.16
2024-02-15T20:42:35.235Z,100223.59
2024-02-15T20:45:04.201Z,100219.81
2024-02-15T20:47:34.573Z,100213.78
2024-02-15T20:50:02.599Z,100205.38
2024-02-15T20:52:30.567Z,100197.81
2024-02-15T20:54:59.435Z,100207.97
2024-02-15T20:57:30.358Z,100197.00
2024-02-15T20:59:58.227Z,100196.75
2024-02-15T21:02:31.800Z,100192.97
2024-02-15T21:05:01.283Z,100192.00
2024-02-15T21:07:29.303Z,100189.31
2024-02-15T21:09:58.056Z,100187.34
2024-02-15T21:12:26.022Z,100188.06
2024-02-15T21:14:55.075Z,100193.25
2024-02-15T21:17:23.753Z,100195.91
2024-02-15T21:19:51.653Z,100202.25
2024-02-15T21:22:21.056Z,100191.56
2024-02-15T21:24:48.796Z,100189.03
2024-02-15T21:27:16.546Z,100187.34
2024-02-15T21:29:47.286Z,100191.69
2024-02-15T21:32:17.612Z,100184.53
2024-02-15T21:34:45.480Z,100188.91
2024-02-15T21:37:14.936Z,100183.56
2024-02-15T21:39:45.630Z,100186.22
2024-02-15T21:42:13.602Z,100185.22
2024-02-15T21:44:41.383Z,100184.41
2024-02-15T21:47:10.088Z,100188.06
2024-02-15T21:49:39.323Z,100178.34
2024-02-15T21:52:09.249Z,100178.47
2024-02-15T21:54:37.336Z,100174.97
2024-02-15T21:57:08.256Z,100174.00
2024-02-15T21:59:36.153Z,100179.19
2024-02-15T22:02:08.409Z,100181.03
2024-02-15T22:04:36.551Z,100183.69
2024-02-15T22:07:04.826Z,100179.34
2024-02-15T22:09:32.844Z,100178.47
2024-02-15T22:12:00.719Z,100175.97
2024-02-15T22:14:29.923Z,100176.81
2024-02-15T22:16:57.671Z,100179.63
2024-02-15T22:19:25.590Z,100176.09
2024-02-15T22:21:54.449Z,100177.06
2024-02-15T22:24:23.108Z,100170.06
2024-02-15T22:26:50.931Z,100173.69
2024-02-15T22:29:18.754Z,100174.69
2024-02-15T22:31:47.845Z,100180.03
2024-02-15T22:34:15.901Z,100178.34
2024-02-15T22:36:46.040Z,100180.03
2024-02-15T22:39:13.847Z,100186.47
2024-02-15T22:41:41.551Z,100181.28
2024-02-15T22:44:09.226Z,100181.41
2024-02-15T22:46:37.006Z,100172.72
2024-02-15T22:49:06.274Z,100172.84
2024-02-15T22:51:37.570Z,100179.13
2024-02-15T22:54:05.420Z,100180.09
2024-02-15T22:56:33.140Z,100172.22
2024-02-15T22:59:00.859Z,100174.06
2024-02-15T23:01:28.759Z,100171.53
2024-02-15T23:03:57.044Z,100177.84
2024-02-15T23:06:26.239Z,100186.94
2024-02-15T23:08:54.009Z,100185.28
2024-02-15T23:11:21.942Z,100182.75
2024-02-15T23:13:49.699Z,100189.19
2024-02-15T23:16:17.427Z,100189.63
2024-02-15T23:18:45.293Z,100186.25
2024-02-15T23:21:13.118Z,100190.00
2024-02-15T23:23:42.129Z,100191.97
2024-02-15T23:26:10.740Z,100192.09
2024-02-15T23:28:38.423Z,100193.09
2024-02-15T23:31:06.941Z,100186.03
2024-02-15T23:33:34.755Z,100187.16
2024-02-15T23:36:20.470Z,100188.00
2024-02-15T23:39:07.012Z,100187.28
2024-02-15T23:41:34.760Z,100192.78
2024-02-15T23:44:02.491Z,100189.25
2024-02-15T23:46:31.721Z,100180.69
2024-02-15T23:48:59.635Z,100181.66
2024-02-15T23:51:27.664Z,100182.66
2024-02-15T23:53:59.295Z,100172.94
2024-02-15T23:56:27.115Z,100182.78
2024-02-15T23:58:56.029Z,100184.03
